Mary Esther, Florida
Current Conditions -  °F | °C
As of 6:26 AM on Monday 22 Dec 2014 (Local Time) from KQBL Reporting Station
Thunderstorm Thunderstorm  
Wind Chill: 55°   Ceiling: 4100
Heat Index: 55°   Visibility: 3mi
Dew Point: 55°   Wind: 2mph
Humidity: 100%   Direction: 100°E
Pressure: 29.91"   Gusts: NA
Location:  30.41°N, 86.66°W
Report Text: KQBL 221226Z AUTO 10002KT 3SM +RA FG VCTS FEW032 BKN041 BKN050 13/13 A2991 RMK AO2
Loading
Personal Weather Stations






























Interactive Weather Map New forecast layout! Learn more

10-Day Weather Forecast

Advertisements
Track Severe Weather on mobile